createdAt,value
2023-11-18T00:01:59.619Z,1.87
2023-11-18T00:04:31.990Z,1.98
2023-11-18T00:07:01.524Z,1.93
2023-11-18T00:09:34.404Z,1.87
2023-11-18T00:12:05.393Z,1.79
2023-11-18T00:14:33.618Z,1.67
2023-11-18T00:17:04.208Z,1.82
2023-11-18T00:19:38.051Z,1.72
2023-11-18T00:22:07.802Z,1.78
2023-11-18T00:24:39.156Z,1.79
2023-11-18T00:27:08.462Z,1.79
2023-11-18T00:29:39.411Z,1.86
2023-11-18T00:32:09.692Z,1.78
2023-11-18T00:34:41.491Z,1.83
2023-11-18T00:37:11.076Z,1.88
2023-11-18T00:39:42.607Z,1.90
2023-11-18T00:42:12.554Z,1.93
2023-11-18T00:44:42.451Z,2.01
2023-11-18T00:47:11.354Z,2.00
2023-11-18T00:49:41.340Z,1.57
2023-11-18T00:52:10.993Z,1.80
2023-11-18T00:54:41.276Z,1.82
2023-11-18T00:57:10.281Z,1.81
2023-11-18T00:59:39.673Z,1.84
2023-11-18T01:02:09.722Z,1.77
2023-11-18T01:04:39.044Z,1.73
2023-11-18T01:07:08.041Z,1.72
2023-11-18T01:09:40.472Z,1.67
2023-11-18T01:12:12.212Z,1.70
2023-11-18T01:14:43.397Z,1.65
2023-11-18T01:17:12.227Z,1.73
2023-11-18T01:19:42.046Z,1.75
2023-11-18T01:22:13.024Z,1.83
2023-11-18T01:24:44.019Z,1.89
2023-11-18T01:27:14.174Z,1.89
2023-11-18T01:29:48.226Z,1.94
2023-11-18T01:32:20.410Z,2.02
2023-11-18T01:34:52.582Z,2.12
2023-11-18T01:37:24.362Z,2.15
2023-11-18T01:39:53.297Z,2.23
2023-11-18T01:42:23.503Z,2.28
2023-11-18T01:44:53.961Z,2.34
2023-11-18T01:47:22.931Z,2.59
2023-11-18T01:49:52.852Z,2.33
2023-11-18T01:52:23.247Z,2.51
2023-11-18T01:54:56.299Z,2.54
2023-11-18T01:57:28.125Z,2.57
2023-11-18T01:59:59.415Z,2.64
2023-11-18T02:02:28.878Z,2.56
2023-11-18T02:04:58.264Z,2.56
2023-11-18T02:07:27.531Z,2.62
2023-11-18T02:09:57.818Z,2.64
2023-11-18T02:12:35.590Z,2.56
2023-11-18T02:15:11.133Z,2.63
2023-11-18T02:17:41.875Z,2.65
2023-11-18T02:20:17.975Z,2.66
2023-11-18T02:22:49.375Z,2.68
2023-11-18T02:25:20.063Z,2.59
2023-11-18T02:27:51.025Z,2.59
2023-11-18T02:30:21.924Z,2.51
2023-11-18T02:32:56.192Z,2.73
2023-11-18T02:35:31.047Z,2.66
2023-11-18T02:38:01.783Z,2.72
2023-11-18T02:40:36.818Z,2.73
2023-11-18T02:43:07.985Z,2.77
2023-11-18T02:45:38.501Z,2.82
2023-11-18T02:48:08.812Z,2.90
2023-11-18T02:50:38.158Z,2.97
2023-11-18T02:53:07.172Z,3.05
2023-11-18T02:55:36.815Z,3.21
2023-11-18T02:58:07.331Z,3.04
2023-11-18T03:00:36.512Z,3.06
2023-11-18T03:03:09.850Z,3.03
2023-11-18T03:05:39.267Z,2.96
2023-11-18T03:08:09.072Z,3.07
2023-11-18T03:10:39.526Z,3.03
2023-11-18T03:13:10.407Z,2.95
2023-11-18T03:15:42.686Z,2.94
2023-11-18T03:18:11.479Z,2.91
2023-11-18T03:20:42.172Z,2.89
2023-11-18T03:23:11.400Z,2.85
2023-11-18T03:25:44.820Z,2.94
2023-11-18T03:28:15.801Z,2.91
2023-11-18T03:30:44.983Z,2.77
2023-11-18T03:33:13.754Z,2.73
2023-11-18T03:35:44.397Z,2.70
2023-11-18T03:38:14.229Z,2.63
2023-11-18T03:40:43.717Z,2.60
2023-11-18T03:43:12.917Z,2.54
2023-11-18T03:45:46.280Z,2.61
2023-11-18T03:48:16.021Z,2.62
2023-11-18T03:50:45.533Z,2.54
2023-11-18T03:53:14.634Z,2.46
2023-11-18T03:55:43.752Z,2.44
2023-11-18T03:58:13.020Z,2.41
2023-11-18T04:00:42.273Z,2.44
2023-11-18T04:03:13.338Z,2.52
2023-11-18T04:05:42.644Z,2.63
2023-11-18T04:08:12.875Z,2.61
2023-11-18T04:10:45.093Z,2.55
2023-11-18T04:13:14.095Z,2.49
2023-11-18T04:15:43.376Z,2.46
2023-11-18T04:18:14.115Z,2.38
2023-11-18T04:20:43.841Z,2.30
2023-11-18T04:23:14.584Z,2.28
2023-11-18T04:25:46.207Z,2.12
2023-11-18T04:28:15.406Z,2.22
2023-11-18T04:30:46.937Z,2.06
2023-11-18T04:33:17.044Z,2.23
2023-11-18T04:35:48.421Z,2.01
2023-11-18T04:38:17.243Z,2.15
2023-11-18T04:40:47.100Z,2.10
2023-11-18T04:43:16.455Z,1.98
2023-11-18T04:45:46.231Z,2.11
2023-11-18T04:48:16.752Z,1.94
2023-11-18T04:50:46.488Z,2.23
2023-11-18T04:53:16.276Z,2.28
2023-11-18T04:55:46.142Z,2.29
2023-11-18T04:58:15.304Z,2.26
2023-11-18T05:00:44.947Z,2.23
2023-11-18T05:03:14.348Z,2.04
2023-11-18T05:05:45.004Z,1.94
2023-11-18T05:08:22.233Z,1.91
2023-11-18T05:10:55.476Z,1.89
2023-11-18T05:13:24.573Z,1.85
2023-11-18T05:15:55.521Z,1.82
2023-11-18T05:18:26.766Z,1.85
2023-11-18T05:20:58.443Z,1.84
2023-11-18T05:23:27.151Z,1.87
2023-11-18T05:25:56.488Z,1.94
2023-11-18T05:28:25.702Z,1.87
2023-11-18T05:30:59.137Z,1.85
2023-11-18T05:33:29.189Z,1.83
2023-11-18T05:35:59.604Z,1.97
2023-11-18T05:38:33.293Z,1.88
2023-11-18T05:41:02.897Z,1.84
2023-11-18T05:43:38.326Z,1.83
2023-11-18T05:46:21.930Z,1.81
2023-11-18T05:48:52.243Z,1.77
2023-11-18T05:51:24.475Z,1.76
2023-11-18T05:53:54.271Z,1.75
2023-11-18T05:56:24.968Z,1.77
2023-11-18T05:58:55.734Z,1.63
2023-11-18T06:01:28.929Z,1.78
2023-11-18T06:03:58.379Z,1.80
2023-11-18T06:06:29.388Z,1.78
2023-11-18T06:09:06.110Z,1.41
2023-11-18T06:11:38.446Z,1.62
2023-11-18T06:14:09.865Z,1.68
2023-11-18T06:16:43.295Z,1.72
2023-11-18T06:19:12.848Z,1.70
2023-11-18T06:21:43.207Z,1.74
2023-11-18T06:24:14.245Z,1.72
2023-11-18T06:26:46.099Z,1.84
2023-11-18T06:29:16.211Z,1.79
2023-11-18T06:31:45.674Z,1.79
2023-11-18T06:34:15.187Z,1.82
2023-11-18T06:36:46.088Z,1.81
2023-11-18T06:39:15.184Z,1.76
2023-11-18T06:41:50.214Z,1.77
2023-11-18T06:44:24.999Z,1.80
2023-11-18T06:46:53.982Z,1.91
2023-11-18T06:49:23.136Z,1.84
2023-11-18T06:52:11.361Z,1.87
2023-11-18T06:54:43.596Z,1.84
2023-11-18T06:57:13.640Z,1.91
2023-11-18T06:59:42.410Z,1.92
2023-11-18T07:02:12.003Z,1.91
2023-11-18T07:04:41.467Z,1.91
2023-11-18T07:07:13.811Z,1.76
2023-11-18T07:09:42.986Z,1.72
2023-11-18T07:12:14.622Z,1.93
2023-11-18T07:14:43.344Z,1.97
2023-11-18T07:17:14.810Z,2.05
2023-11-18T07:19:45.474Z,2.07
2023-11-18T07:22:16.364Z,2.04
2023-11-18T07:24:45.246Z,2.04
2023-11-18T07:27:14.554Z,2.00
2023-11-18T07:29:43.628Z,1.96
2023-11-18T07:32:15.185Z,2.00
2023-11-18T07:34:46.212Z,1.97
2023-11-18T07:37:17.850Z,2.04
2023-11-18T07:39:49.538Z,2.09
2023-11-18T07:42:19.317Z,2.18
2023-11-18T07:44:49.131Z,2.19
2023-11-18T07:47:18.260Z,2.21
2023-11-18T07:49:47.763Z,2.29
2023-11-18T07:52:18.630Z,2.31
2023-11-18T07:54:48.628Z,2.31
2023-11-18T07:57:19.629Z,2.41
2023-11-18T07:59:48.587Z,2.50
2023-11-18T08:02:18.371Z,2.33
2023-11-18T08:04:47.309Z,2.70
2023-11-18T08:07:18.027Z,2.72
2023-11-18T08:09:47.346Z,2.89
2023-11-18T08:12:16.601Z,2.85
2023-11-18T08:14:46.641Z,2.86
2023-11-18T08:17:15.888Z,2.91
2023-11-18T08:19:44.594Z,2.95
2023-11-18T08:22:14.989Z,2.94
2023-11-18T08:24:45.524Z,2.72
2023-11-18T08:27:14.868Z,3.08
2023-11-18T08:29:46.002Z,3.18
2023-11-18T08:32:16.064Z,2.97
2023-11-18T08:34:44.853Z,3.24
2023-11-18T08:37:15.086Z,3.11
2023-11-18T08:39:45.267Z,3.11
2023-11-18T08:42:16.132Z,3.11
2023-11-18T08:44:49.487Z,3.08
2023-11-18T08:47:20.411Z,3.04
2023-11-18T08:49:49.389Z,3.07
2023-11-18T08:52:19.173Z,3.17
2023-11-18T08:55:03.205Z,3.26
2023-11-18T08:57:49.578Z,3.33
2023-11-18T09:00:40.354Z,3.33
2023-11-18T09:03:09.863Z,3.43
2023-11-18T09:05:39.488Z,3.51
2023-11-18T09:08:08.605Z,3.65
2023-11-18T09:10:39.620Z,3.35
2023-11-18T09:13:08.641Z,3.81
2023-11-18T09:15:38.612Z,3.95
2023-11-18T09:18:11.309Z,3.87
2023-11-18T09:20:41.444Z,4.00
2023-11-18T09:23:10.821Z,4.00
2023-11-18T09:25:42.811Z,4.06
2023-11-18T09:28:15.394Z,4.04
2023-11-18T09:30:51.338Z,4.11
2023-11-18T09:33:26.889Z,4.17
2023-11-18T09:35:59.844Z,4.25
2023-11-18T09:38:32.652Z,3.98
2023-11-18T09:41:08.508Z,3.92
2023-11-18T09:43:47.503Z,3.88
2023-11-18T09:46:17.909Z,3.81
2023-11-18T09:48:54.517Z,3.84
2023-11-18T09:51:25.100Z,3.79
2023-11-18T09:53:55.863Z,3.70
2023-11-18T09:56:40.086Z,3.65
2023-11-18T09:59:20.994Z,3.71
2023-11-18T10:01:55.656Z,3.65
2023-11-18T10:04:28.884Z,3.79
2023-11-18T10:06:58.168Z,3.80
2023-11-18T10:09:30.441Z,3.81
2023-11-18T10:12:06.866Z,3.81
2023-11-18T10:14:36.888Z,3.76
2023-11-18T10:17:16.210Z,3.92
2023-11-18T10:20:01.180Z,3.94
2023-11-18T10:22:33.747Z,3.93
2023-11-18T10:25:07.175Z,3.93
2023-11-18T10:27:37.274Z,3.93
2023-11-18T10:30:20.430Z,3.89
2023-11-18T10:33:06.519Z,3.90
2023-11-18T10:35:37.658Z,3.89
2023-11-18T10:38:07.652Z,3.81
2023-11-18T10:40:37.896Z,3.73
2023-11-18T10:43:11.384Z,3.76
2023-11-18T10:45:45.184Z,3.81
2023-11-18T10:48:17.779Z,3.84
2023-11-18T10:50:51.152Z,3.87
2023-11-18T10:53:22.981Z,3.75
2023-11-18T10:55:52.005Z,3.85
2023-11-18T10:58:22.098Z,3.79
2023-11-18T11:00:53.063Z,3.72
2023-11-18T11:03:24.972Z,3.58
2023-11-18T11:05:55.678Z,3.74
2023-11-18T11:08:35.770Z,3.62
2023-11-18T11:11:11.429Z,2.98
2023-11-18T11:13:42.958Z,3.50
2023-11-18T11:16:20.519Z,3.45
2023-11-18T11:18:56.037Z,3.49
2023-11-18T11:21:29.778Z,3.49
2023-11-18T11:24:06.683Z,3.58
2023-11-18T11:26:52.746Z,3.77
2023-11-18T11:29:29.748Z,3.52
2023-11-18T11:32:14.955Z,3.87
2023-11-18T11:34:52.907Z,3.93
2023-11-18T11:37:28.292Z,3.97
2023-11-18T11:39:59.747Z,4.15
2023-11-18T11:42:31.811Z,4.19
2023-11-18T11:45:03.953Z,3.74
2023-11-18T11:47:38.290Z,3.50
2023-11-18T11:50:14.394Z,4.02
2023-11-18T11:52:50.220Z,4.23
2023-11-18T11:55:29.755Z,4.10
2023-11-18T11:58:00.144Z,4.13
2023-11-18T12:00:36.092Z,4.21
2023-11-18T12:03:06.401Z,4.25
2023-11-18T12:05:53.419Z,3.76
2023-11-18T12:08:26.725Z,4.22
2023-11-18T12:10:58.153Z,4.14
2023-11-18T12:13:27.851Z,4.17
2023-11-18T12:15:58.887Z,4.11
2023-11-18T12:18:35.492Z,4.11
2023-11-18T12:21:05.674Z,3.68
2023-11-18T12:23:36.069Z,3.92
2023-11-18T12:26:26.476Z,3.76
2023-11-18T12:28:57.026Z,3.84
2023-11-18T12:31:48.108Z,3.94
2023-11-18T12:34:18.262Z,4.04
2023-11-18T12:37:23.337Z,4.01
2023-11-18T12:40:26.043Z,4.11
2023-11-18T12:43:06.236Z,4.16
2023-11-18T12:45:46.375Z,4.28
2023-11-18T12:48:19.830Z,4.13
2023-11-18T12:50:49.901Z,4.22
2023-11-18T12:53:19.794Z,4.17
2023-11-18T12:55:50.812Z,3.95
2023-11-18T12:58:21.168Z,3.87
2023-11-18T13:00:51.340Z,3.46
2023-11-18T13:03:21.878Z,3.92
2023-11-18T13:05:56.960Z,3.47
2023-11-18T13:08:26.107Z,3.93
2023-11-18T13:11:04.984Z,3.93
2023-11-18T13:13:37.179Z,3.96
2023-11-18T13:16:11.225Z,3.54
2023-11-18T13:18:51.037Z,3.57
2023-11-18T13:21:23.828Z,3.70
2023-11-18T13:23:56.090Z,3.38
2023-11-18T13:26:25.904Z,3.28
2023-11-18T13:28:56.330Z,2.70
2023-11-18T13:31:25.774Z,2.47
2023-11-18T13:33:56.593Z,3.19
2023-11-18T13:36:26.157Z,2.84
2023-11-18T13:38:56.145Z,2.91
2023-11-18T13:41:32.373Z,2.89
2023-11-18T13:44:02.288Z,2.88
2023-11-18T13:46:32.778Z,2.72
2023-11-18T13:49:07.239Z,2.62
2023-11-18T13:51:37.746Z,1.87
2023-11-18T13:54:07.946Z,2.42
2023-11-18T13:56:37.634Z,2.35
2023-11-18T13:59:11.094Z,2.35
2023-11-18T14:01:40.501Z,2.26
2023-11-18T14:04:12.638Z,2.25
2023-11-18T14:06:43.547Z,2.16
2023-11-18T14:09:13.022Z,2.15
2023-11-18T14:11:42.900Z,2.08
2023-11-18T14:14:14.914Z,1.91
2023-11-18T14:16:44.230Z,2.03
2023-11-18T14:19:14.664Z,1.82
2023-11-18T14:21:45.159Z,1.87
2023-11-18T14:24:18.320Z,1.64
2023-11-18T14:26:48.004Z,1.83
2023-11-18T14:29:19.489Z,1.75
2023-11-18T14:31:52.278Z,1.52
2023-11-18T14:34:22.620Z,1.64
2023-11-18T14:36:51.773Z,1.65
2023-11-18T14:39:24.311Z,1.58
2023-11-18T14:41:54.872Z,1.43
2023-11-18T14:44:27.092Z,1.49
2023-11-18T14:46:56.702Z,1.53
2023-11-18T14:49:29.581Z,1.59
2023-11-18T14:52:02.773Z,1.59
2023-11-18T14:54:37.101Z,1.62
2023-11-18T14:57:07.199Z,1.64
2023-11-18T14:59:36.697Z,1.66
2023-11-18T15:02:18.593Z,0.70
2023-11-18T15:04:49.755Z,0.72
2023-11-18T15:07:19.211Z,1.79
2023-11-18T15:09:53.723Z,1.84
2023-11-18T15:12:25.583Z,1.87
2023-11-18T15:14:54.398Z,1.87
2023-11-18T15:17:37.938Z,1.54
2023-11-18T15:20:16.178Z,1.47
2023-11-18T15:22:45.541Z,1.94
2023-11-18T15:25:15.417Z,1.94
2023-11-18T15:27:47.366Z,1.92
2023-11-18T15:30:17.775Z,1.92
2023-11-18T15:32:48.184Z,1.92
2023-11-18T15:35:19.540Z,1.78
2023-11-18T15:37:49.659Z,1.83
2023-11-18T15:40:20.897Z,1.85
2023-11-18T15:42:51.670Z,1.91
2023-11-18T15:45:22.382Z,2.01
2023-11-18T15:47:51.949Z,1.86
2023-11-18T15:50:22.608Z,1.89
2023-11-18T15:52:53.685Z,1.88
2023-11-18T15:55:24.432Z,1.94
2023-11-18T15:57:55.466Z,1.97
2023-11-18T16:00:27.275Z,2.05
2023-11-18T16:03:02.048Z,1.90
2023-11-18T16:05:40.972Z,1.81
2023-11-18T16:08:11.463Z,1.75
2023-11-18T16:10:44.823Z,1.66
2023-11-18T16:13:14.735Z,1.52
2023-11-18T16:15:47.375Z,1.45
2023-11-18T16:18:17.214Z,1.47
2023-11-18T16:20:49.920Z,1.43
2023-11-18T16:23:19.764Z,1.38
2023-11-18T16:25:48.949Z,1.35
2023-11-18T16:28:18.305Z,1.26
2023-11-18T16:30:48.421Z,1.00
2023-11-18T16:33:20.638Z,0.32
2023-11-18T16:35:54.730Z,1.05
2023-11-18T16:38:26.935Z,1.24
2023-11-18T16:40:56.062Z,1.31
2023-11-18T16:43:25.162Z,1.33
2023-11-18T16:45:54.162Z,1.39
2023-11-18T16:48:23.393Z,1.41
2023-11-18T16:50:55.104Z,1.47
2023-11-18T16:53:25.351Z,1.48
2023-11-18T16:55:54.494Z,1.51
2023-11-18T16:58:23.806Z,1.28
2023-11-18T17:00:54.185Z,1.45
2023-11-18T17:03:26.326Z,1.49
2023-11-18T17:05:56.967Z,1.57
2023-11-18T17:08:26.533Z,1.62
2023-11-18T17:10:55.625Z,1.60
2023-11-18T17:13:26.876Z,1.78
2023-11-18T17:15:55.772Z,1.81
2023-11-18T17:18:24.922Z,1.80
2023-11-18T17:20:54.386Z,1.81
2023-11-18T17:23:26.324Z,1.83
2023-11-18T17:25:57.212Z,1.87
2023-11-18T17:28:28.747Z,1.84
2023-11-18T17:30:58.063Z,1.83
2023-11-18T17:33:31.153Z,1.53
2023-11-18T17:36:03.173Z,1.84
2023-11-18T17:38:34.454Z,1.86
2023-11-18T17:41:03.472Z,1.66
2023-11-18T17:43:34.086Z,2.00
2023-11-18T17:46:03.144Z,2.02
2023-11-18T17:48:34.996Z,2.02
2023-11-18T17:51:04.023Z,1.87
2023-11-18T17:53:36.041Z,2.04
2023-11-18T17:56:06.785Z,2.03
2023-11-18T17:58:37.065Z,2.03
2023-11-18T18:01:23.907Z,2.00
2023-11-18T18:04:05.278Z,1.99
2023-11-18T18:06:38.575Z,1.95
2023-11-18T18:09:18.067Z,1.19
2023-11-18T18:11:47.021Z,1.78
2023-11-18T18:14:22.738Z,1.77
2023-11-18T18:16:51.745Z,1.85
2023-11-18T18:19:28.165Z,1.94
2023-11-18T18:22:09.191Z,1.93
2023-11-18T18:24:48.234Z,1.68
2023-11-18T18:27:18.280Z,1.91
2023-11-18T18:29:48.420Z,1.92
2023-11-18T18:32:19.974Z,1.92
2023-11-18T18:34:49.209Z,1.93
2023-11-18T18:37:18.482Z,1.97
2023-11-18T18:39:54.192Z,1.92
2023-11-18T18:42:23.249Z,1.91
2023-11-18T18:44:55.755Z,1.88
2023-11-18T18:47:27.862Z,1.83
2023-11-18T18:50:00.254Z,1.87
2023-11-18T18:52:29.738Z,1.89
2023-11-18T18:55:00.609Z,1.83
2023-11-18T18:57:29.616Z,1.89
2023-11-18T19:00:05.867Z,1.92
2023-11-18T19:02:35.699Z,1.96
2023-11-18T19:05:06.039Z,1.93
2023-11-18T19:07:40.997Z,1.95
2023-11-18T19:10:12.913Z,1.90
2023-11-18T19:12:43.641Z,1.87
2023-11-18T19:15:18.377Z,1.94
2023-11-18T19:17:51.450Z,1.98
2023-11-18T19:20:27.805Z,1.90
2023-11-18T19:23:06.127Z,1.53
2023-11-18T19:25:48.163Z,1.98
2023-11-18T19:28:20.744Z,1.23
2023-11-18T19:30:50.222Z,1.96
2023-11-18T19:33:20.713Z,1.95
2023-11-18T19:35:56.009Z,1.89
2023-11-18T19:38:25.015Z,1.94
2023-11-18T19:40:56.300Z,1.97
2023-11-18T19:43:30.117Z,1.54
2023-11-18T19:46:00.978Z,1.90
2023-11-18T19:48:48.348Z,2.00
2023-11-18T19:51:30.631Z,2.04
2023-11-18T19:54:03.102Z,1.94
2023-11-18T19:56:39.102Z,1.85
2023-11-18T19:59:10.690Z,2.00
2023-11-18T20:01:40.355Z,1.98
2023-11-18T20:04:09.433Z,1.99
2023-11-18T20:06:39.193Z,1.90
2023-11-18T20:09:09.480Z,1.96
2023-11-18T20:11:50.128Z,2.01
2023-11-18T20:14:21.748Z,2.03
2023-11-18T20:16:53.154Z,1.70
2023-11-18T20:19:26.121Z,1.95
2023-11-18T20:21:55.686Z,1.88
2023-11-18T20:24:28.311Z,1.87
2023-11-18T20:27:02.954Z,1.91
2023-11-18T20:29:37.133Z,1.81
2023-11-18T20:32:09.407Z,1.70
2023-11-18T20:34:38.938Z,1.91
2023-11-18T20:37:13.730Z,1.86
2023-11-18T20:39:45.396Z,1.91
2023-11-18T20:42:44.945Z,1.89
2023-11-18T20:45:15.576Z,0.96
2023-11-18T20:47:50.313Z,2.02
2023-11-18T20:50:19.673Z,2.13
2023-11-18T20:52:52.520Z,2.11
2023-11-18T20:58:03.492Z,1.62
2023-11-18T21:00:37.301Z,2.11
2023-11-18T21:03:08.248Z,1.97
2023-11-18T21:05:47.351Z,2.02
2023-11-18T21:08:17.752Z,2.01
2023-11-18T21:10:50.224Z,1.91
2023-11-18T21:13:22.141Z,2.06
2023-11-18T21:15:51.872Z,2.08
2023-11-18T21:18:24.349Z,2.05
2023-11-18T21:20:55.527Z,2.08
2023-11-18T21:23:24.977Z,2.10
2023-11-18T21:25:54.570Z,2.07
2023-11-18T21:28:26.642Z,2.07
2023-11-18T21:30:55.752Z,2.07
2023-11-18T21:33:25.119Z,2.05
2023-11-18T21:35:54.291Z,2.06
2023-11-18T21:38:24.293Z,2.08
2023-11-18T21:40:56.363Z,2.10
2023-11-18T21:43:30.252Z,1.77
2023-11-18T21:45:59.605Z,2.04
2023-11-18T21:48:32.779Z,2.02
2023-11-18T21:51:01.643Z,2.06
2023-11-18T21:53:32.803Z,2.00
2023-11-18T21:56:02.923Z,1.85
2023-11-18T21:58:33.696Z,1.86
2023-11-18T22:01:02.913Z,1.79
2023-11-18T22:03:32.779Z,1.65
2023-11-18T22:06:02.057Z,1.17
2023-11-18T22:08:31.023Z,1.16
2023-11-18T22:11:02.133Z,1.37
2023-11-18T22:13:33.195Z,1.23
2023-11-18T22:16:05.278Z,1.12
2023-11-18T22:18:39.598Z,0.82
2023-11-18T22:21:13.371Z,0.98
2023-11-18T22:23:49.770Z,0.98
2023-11-18T22:26:19.684Z,0.84
2023-11-18T22:28:52.959Z,0.98
2023-11-18T22:31:24.190Z,0.99
2023-11-18T22:34:11.053Z,0.45
2023-11-18T22:36:46.532Z,0.93
2023-11-18T22:39:24.104Z,0.84
2023-11-18T22:41:53.204Z,0.79
2023-11-18T22:44:27.500Z,0.66
2023-11-18T22:46:56.905Z,0.33
2023-11-18T22:49:47.263Z,0.55
2023-11-18T22:52:18.380Z,0.54
2023-11-18T22:54:57.793Z,0.11
2023-11-18T22:57:27.710Z,0.39
2023-11-18T23:00:01.925Z,-0.10
2023-11-18T23:02:33.005Z,0.26
2023-11-18T23:05:09.770Z,0.19
2023-11-18T23:07:46.212Z,0.20
2023-11-18T23:10:16.492Z,0.12
2023-11-18T23:12:46.092Z,0.16
2023-11-18T23:15:18.217Z,0.09
2023-11-18T23:17:47.487Z,0.04
2023-11-18T23:20:16.442Z,-0.13
2023-11-18T23:22:45.384Z,-0.05
2023-11-18T23:25:14.432Z,-0.12
2023-11-18T23:27:45.764Z,-0.26
2023-11-18T23:30:22.227Z,-0.21
2023-11-18T23:32:51.656Z,-0.30
2023-11-18T23:35:24.056Z,-0.31
2023-11-18T23:37:53.638Z,-0.33
2023-11-18T23:40:24.961Z,-0.34
2023-11-18T23:42:56.426Z,-0.34
2023-11-18T23:45:27.114Z,-0.37
2023-11-18T23:47:59.093Z,-0.30
2023-11-18T23:50:32.853Z,-0.29
2023-11-18T23:53:02.308Z,-0.28
2023-11-18T23:55:33.268Z,-0.19
2023-11-18T23:58:02.457Z,-0.48
